createdAt,value
2019-04-05T00:00:55.899Z,57.74
2019-04-05T00:03:25.452Z,57.93
2019-04-05T00:05:54.963Z,58.01
2019-04-05T00:08:24.525Z,58.08
2019-04-05T00:10:54.153Z,58.23
2019-04-05T00:13:23.616Z,58.61
2019-04-05T00:15:53.172Z,58.91
2019-04-05T00:18:22.715Z,58.96
2019-04-05T00:20:52.390Z,59.15
2019-04-05T00:23:21.870Z,59.18
2019-04-05T00:25:51.389Z,59.39
2019-04-05T00:28:20.923Z,59.74
2019-04-05T00:30:50.430Z,59.85
2019-04-05T00:33:19.933Z,59.93
2019-04-05T00:35:49.420Z,60.22
2019-04-05T00:38:18.923Z,60.26
2019-04-05T00:40:48.472Z,60.37
2019-04-05T00:43:17.971Z,60.53
2019-04-05T00:45:47.517Z,60.77
2019-04-05T00:48:17.030Z,60.97
2019-04-05T00:50:46.519Z,60.99
2019-04-05T00:53:16.025Z,61.12
2019-04-05T00:55:45.602Z,61.14
2019-04-05T00:58:15.179Z,61.16
2019-04-05T01:00:44.666Z,61.30
2019-04-05T01:03:14.126Z,61.67
2019-04-05T01:05:43.784Z,61.92
2019-04-05T01:08:13.411Z,62.09
2019-04-05T01:10:43.035Z,62.02
2019-04-05T01:13:12.598Z,61.90
2019-04-05T01:15:42.124Z,61.93
2019-04-05T01:18:11.790Z,61.82
2019-04-05T01:20:43.154Z,61.92
2019-04-05T01:23:12.973Z,61.99
2019-04-05T01:25:42.658Z,61.88
2019-04-05T01:28:12.174Z,61.93
2019-04-05T01:30:41.817Z,61.80
2019-04-05T01:33:11.333Z,61.70
2019-04-05T01:35:40.853Z,61.81
2019-04-05T01:38:10.940Z,61.87
2019-04-05T01:40:42.036Z,61.90
2019-04-05T01:43:11.523Z,61.86
2019-04-05T01:45:53.054Z,61.76
2019-04-05T01:48:12.765Z,61.80
2019-04-05T01:50:42.331Z,61.82
2019-04-05T01:53:11.987Z,61.79
2019-04-05T01:55:41.792Z,61.68
2019-04-05T01:58:11.321Z,61.81
2019-04-05T02:00:41.056Z,61.90
2019-04-05T02:03:10.530Z,62.18
2019-04-05T02:05:40.091Z,62.29
2019-04-05T02:08:09.724Z,62.18
2019-04-05T02:10:39.239Z,62.38
2019-04-05T02:13:08.995Z,62.35
2019-04-05T02:15:38.828Z,62.70
2019-04-05T02:18:08.401Z,62.82
2019-04-05T02:20:37.977Z,62.75
2019-04-05T02:23:07.580Z,62.84
2019-04-05T02:25:37.126Z,63.08
2019-04-05T02:28:06.692Z,62.98
2019-04-05T02:30:36.345Z,62.92
2019-04-05T02:33:06.076Z,63.20
2019-04-05T02:35:38.975Z,63.39
2019-04-05T02:38:07.054Z,63.53
2019-04-05T02:40:39.988Z,63.73
2019-04-05T02:43:12.428Z,63.80
2019-04-05T02:45:42.723Z,63.79
2019-04-05T02:48:13.954Z,63.86
2019-04-05T02:50:46.629Z,64.07
2019-04-05T02:53:18.041Z,64.45
2019-04-05T02:55:48.876Z,64.48
2019-04-05T02:58:19.211Z,64.54
2019-04-05T03:00:49.142Z,64.64
2019-04-05T03:03:18.787Z,64.39
2019-04-05T03:05:49.423Z,64.33
2019-04-05T03:08:19.284Z,64.17
2019-04-05T03:11:19.294Z,64.02
2019-04-05T03:13:52.211Z,63.94
2019-04-05T03:16:40.832Z,63.82
2019-04-05T03:19:12.213Z,63.71
2019-04-05T03:21:44.797Z,64.10
2019-04-05T03:24:18.603Z,63.65
2019-04-05T03:26:56.636Z,64.04
2019-04-05T03:29:26.575Z,64.46
2019-04-05T03:31:56.189Z,64.56
2019-04-05T03:34:26.178Z,64.55
2019-04-05T03:36:55.948Z,64.38
2019-04-05T03:39:25.498Z,64.27
2019-04-05T03:41:55.904Z,64.21
2019-04-05T03:44:27.092Z,64.21
2019-04-05T03:46:58.006Z,64.36
2019-04-05T03:49:28.202Z,64.36
2019-04-05T03:51:57.919Z,64.72
2019-04-05T03:54:27.465Z,65.19
2019-04-05T03:56:57.123Z,65.23
2019-04-05T03:59:26.643Z,65.26
2019-04-05T04:01:56.877Z,65.74
2019-04-05T04:04:26.698Z,66.12
2019-04-05T04:06:56.797Z,66.41
2019-04-05T04:09:26.420Z,66.58
2019-04-05T04:11:56.267Z,66.62
2019-04-05T04:14:25.921Z,66.43
2019-04-05T04:17:11.413Z,66.20
2019-04-05T04:19:27.736Z,66.09
2019-04-05T04:22:36.904Z,65.73
2019-04-05T04:25:06.779Z,65.23
2019-04-05T04:27:38.359Z,65.92
2019-04-05T04:30:08.362Z,65.73
2019-04-05T04:32:38.001Z,65.46
2019-04-05T04:35:07.695Z,65.08
2019-04-05T04:37:37.749Z,64.11
2019-04-05T04:40:07.662Z,63.61
2019-04-05T04:42:37.403Z,63.46
2019-04-05T04:45:12.294Z,63.36
2019-04-05T04:47:38.859Z,63.07
2019-04-05T04:50:10.809Z,63.50
2019-04-05T04:52:41.195Z,64.06
2019-04-05T04:55:11.502Z,64.20
2019-04-05T04:57:41.360Z,64.36
2019-04-05T05:00:11.335Z,64.58
2019-04-05T05:02:41.381Z,64.33
2019-04-05T05:05:11.720Z,64.20
2019-04-05T05:07:41.800Z,63.65
2019-04-05T05:10:11.804Z,64.21
2019-04-05T05:12:43.502Z,64.07
2019-04-05T05:15:13.194Z,63.70
2019-04-05T05:17:43.071Z,63.54
2019-04-05T05:20:16.280Z,63.22
2019-04-05T05:22:51.052Z,62.95
2019-04-05T05:25:27.655Z,62.95
2019-04-05T05:28:21.615Z,62.44
2019-04-05T05:31:02.360Z,62.43
2019-04-05T05:33:36.346Z,62.83
2019-04-05T05:36:10.645Z,62.96
2019-04-05T05:38:43.093Z,62.68
2019-04-05T05:41:16.287Z,62.49
2019-04-05T05:43:47.880Z,62.18
2019-04-05T05:46:20.101Z,62.11
2019-04-05T05:48:54.170Z,62.07
2019-04-05T05:51:25.871Z,62.18
2019-04-05T05:54:04.203Z,62.71
2019-04-05T05:56:34.282Z,62.81
2019-04-05T05:59:11.824Z,62.84
2019-04-05T06:01:47.112Z,62.53
2019-04-05T06:04:20.716Z,63.04
2019-04-05T06:07:01.685Z,63.02
2019-04-05T06:09:32.479Z,62.58
2019-04-05T06:12:03.266Z,62.61
2019-04-05T06:14:39.577Z,62.92
2019-04-05T06:17:10.539Z,62.86
2019-04-05T06:19:42.021Z,62.53
2019-04-05T06:22:14.250Z,62.50
2019-04-05T06:24:48.300Z,62.47
2019-04-05T06:27:26.588Z,62.26
2019-04-05T06:29:58.779Z,62.20
2019-04-05T06:32:33.985Z,62.07
2019-04-05T06:35:02.296Z,61.77
2019-04-05T06:37:37.572Z,61.25
2019-04-05T06:40:07.527Z,61.30
2019-04-05T06:42:42.705Z,60.75
2019-04-05T06:45:14.447Z,60.96
2019-04-05T06:47:45.480Z,60.42
2019-04-05T06:50:20.595Z,59.86
2019-04-05T06:52:51.360Z,59.66
2019-04-05T06:55:23.502Z,59.51
2019-04-05T06:57:55.111Z,59.26
2019-04-05T07:00:31.287Z,59.67
2019-04-05T07:03:07.686Z,59.36
2019-04-05T07:05:40.384Z,59.23
2019-04-05T07:08:18.309Z,59.17
2019-04-05T07:10:51.200Z,58.62
2019-04-05T07:13:27.571Z,58.74
2019-04-05T07:16:03.510Z,58.64
2019-04-05T07:18:36.337Z,58.03
2019-04-05T07:21:10.204Z,58.33
2019-04-05T07:23:53.983Z,57.71
2019-04-05T07:26:27.125Z,57.63
2019-04-05T07:29:00.650Z,57.92
2019-04-05T07:31:36.500Z,57.83
2019-04-05T07:34:16.065Z,57.47
2019-04-05T07:37:01.466Z,56.51
2019-04-05T07:39:36.507Z,56.26
2019-04-05T07:42:07.430Z,56.23
2019-04-05T07:44:39.590Z,55.57
2019-04-05T07:47:10.019Z,55.13
2019-04-05T07:49:45.752Z,54.95
2019-04-05T07:52:24.732Z,54.69
2019-04-05T07:55:04.433Z,54.59
2019-04-05T07:57:34.648Z,54.25
2019-04-05T08:00:07.571Z,53.62
2019-04-05T08:02:38.964Z,53.01
2019-04-05T08:05:18.811Z,52.71
2019-04-05T08:07:54.879Z,52.45
2019-04-05T08:10:35.664Z,51.93
2019-04-05T08:13:21.260Z,51.48
2019-04-05T08:16:01.293Z,51.25
2019-04-05T08:18:40.755Z,50.64
2019-04-05T08:21:21.033Z,50.49
2019-04-05T08:24:45.414Z,49.98
2019-04-05T08:27:34.271Z,50.21
2019-04-05T08:30:15.577Z,50.47
2019-04-05T08:32:58.730Z,50.68
2019-04-05T08:35:34.359Z,50.09
2019-04-05T08:38:26.226Z,50.42
2019-04-05T08:41:09.490Z,50.06
2019-04-05T08:43:41.397Z,49.94
2019-04-05T08:46:13.997Z,51.05
2019-04-05T08:49:10.910Z,51.13
2019-04-05T08:51:53.249Z,51.27
2019-04-05T08:54:33.259Z,51.06
2019-04-05T08:57:54.627Z,50.78
2019-04-05T09:00:31.654Z,50.91
2019-04-05T09:03:12.288Z,50.28
2019-04-05T09:06:15.029Z,49.97
2019-04-05T09:08:59.203Z,49.49
2019-04-05T09:11:49.479Z,48.92
2019-04-05T09:14:31.691Z,49.21
2019-04-05T09:17:06.106Z,49.61
2019-04-05T09:19:38.154Z,49.03
2019-04-05T09:22:28.178Z,49.31
2019-04-05T09:24:58.890Z,49.76
2019-04-05T09:27:34.660Z,49.85
2019-04-05T09:30:28.021Z,49.47
2019-04-05T09:33:15.556Z,48.53
2019-04-05T09:35:49.850Z,48.63
2019-04-05T09:38:27.141Z,49.36
2019-04-05T09:41:12.113Z,48.66
2019-04-05T09:43:41.534Z,48.54
2019-04-05T09:46:11.158Z,48.35
2019-04-05T09:48:40.906Z,47.92
2019-04-05T09:51:10.498Z,47.29
2019-04-05T09:53:40.130Z,46.38
2019-04-05T09:56:10.049Z,46.39
2019-04-05T09:58:39.722Z,46.80
2019-04-05T10:01:09.456Z,46.15
2019-04-05T10:03:39.201Z,46.08
2019-04-05T10:06:09.744Z,46.10
2019-04-05T10:08:39.628Z,45.58
2019-04-05T10:11:09.407Z,44.92
2019-04-05T10:13:39.146Z,44.13
2019-04-05T10:16:08.817Z,44.50
2019-04-05T10:18:38.572Z,44.81
2019-04-05T10:21:08.263Z,44.93
2019-04-05T10:23:40.176Z,45.36
2019-04-05T10:26:09.908Z,45.19
2019-04-05T10:28:39.765Z,45.08
2019-04-05T10:31:09.379Z,44.59
2019-04-05T10:33:39.090Z,44.54
2019-04-05T10:36:08.754Z,44.84
2019-04-05T10:38:38.421Z,44.72
2019-04-05T10:41:08.029Z,44.94
2019-04-05T10:43:37.603Z,45.22
2019-04-05T10:46:09.087Z,45.29
2019-04-05T10:48:38.740Z,45.38
2019-04-05T10:51:08.317Z,45.40
2019-04-05T10:53:38.463Z,45.41
2019-04-05T10:56:08.052Z,45.19
2019-04-05T10:58:37.760Z,44.41
2019-04-05T11:01:07.766Z,43.91
2019-04-05T11:03:37.354Z,44.04
2019-04-05T11:06:07.048Z,43.64
2019-04-05T11:08:36.805Z,43.41
2019-04-05T11:11:06.516Z,43.43
2019-04-05T11:13:36.194Z,43.51
2019-04-05T11:16:05.873Z,43.83
2019-04-05T11:18:35.501Z,43.96
2019-04-05T11:21:05.035Z,43.52
2019-04-05T11:23:34.652Z,43.50
2019-04-05T11:26:04.198Z,43.64
2019-04-05T11:28:33.697Z,43.87
2019-04-05T11:31:03.773Z,43.42
2019-04-05T11:33:33.551Z,43.86
2019-04-05T11:36:03.279Z,43.78
2019-04-05T11:38:33.000Z,43.53
2019-04-05T11:41:03.908Z,43.07
2019-04-05T11:43:36.095Z,43.24
2019-04-05T11:46:05.740Z,43.01
2019-04-05T11:48:36.038Z,42.90
2019-04-05T11:51:05.653Z,42.59
2019-04-05T11:53:35.174Z,42.58
2019-04-05T11:56:14.695Z,42.75
2019-04-05T11:58:35.940Z,42.91
2019-04-05T12:01:26.821Z,43.08
2019-04-05T12:04:05.006Z,43.37
2019-04-05T12:06:35.280Z,43.21
2019-04-05T12:09:07.535Z,43.60
2019-04-05T12:11:37.112Z,44.05
2019-04-05T12:14:06.583Z,43.80
2019-04-05T12:16:36.568Z,43.52
2019-04-05T12:19:06.273Z,43.09
2019-04-05T12:21:35.818Z,42.73
2019-04-05T12:24:05.286Z,42.20
2019-04-05T12:26:35.221Z,42.71
2019-04-05T12:29:05.426Z,42.75
2019-04-05T12:31:34.954Z,42.73
2019-04-05T12:34:04.491Z,42.50
2019-04-05T12:36:34.012Z,42.03
2019-04-05T12:39:07.668Z,41.82
2019-04-05T12:41:34.945Z,42.44
2019-04-05T12:44:04.576Z,42.43
2019-04-05T12:46:34.713Z,42.67
2019-04-05T12:49:04.222Z,42.05
2019-04-05T12:51:33.745Z,41.81
2019-04-05T12:54:03.266Z,41.65
2019-04-05T12:56:32.929Z,41.70
2019-04-05T12:59:02.437Z,41.49
2019-04-05T13:01:31.982Z,41.25
2019-04-05T13:04:01.747Z,41.55
2019-04-05T13:06:31.332Z,41.44
2019-04-05T13:09:00.848Z,41.33
2019-04-05T13:11:30.592Z,41.35
2019-04-05T13:14:00.130Z,41.02
2019-04-05T13:16:30.188Z,41.08
2019-04-05T13:19:00.844Z,40.70
2019-04-05T13:21:33.040Z,40.64
2019-04-05T13:24:04.225Z,41.42
2019-04-05T13:26:33.516Z,41.06
2019-04-05T13:29:03.137Z,40.61
2019-04-05T13:31:32.855Z,40.40
2019-04-05T13:34:02.341Z,40.21
2019-04-05T13:36:31.866Z,40.47
2019-04-05T13:39:01.488Z,40.86
2019-04-05T13:41:32.193Z,40.65
2019-04-05T13:44:02.290Z,40.52
2019-04-05T13:46:31.904Z,41.44
2019-04-05T13:49:01.635Z,41.51
2019-04-05T13:51:32.036Z,41.18
2019-04-05T13:54:02.065Z,41.28
2019-04-05T13:56:31.621Z,41.26
2019-04-05T13:59:01.187Z,41.02
2019-04-05T14:01:30.749Z,40.81
2019-04-05T14:04:00.408Z,40.53
2019-04-05T14:06:29.980Z,40.55
2019-04-05T14:08:59.554Z,40.23
2019-04-05T14:11:29.104Z,39.93
2019-04-05T14:13:58.684Z,39.83
2019-04-05T14:16:28.262Z,39.52
2019-04-05T14:18:57.818Z,39.50
2019-04-05T14:21:39.479Z,39.29
2019-04-05T14:23:58.679Z,38.96
2019-04-05T14:26:29.333Z,39.25
2019-04-05T14:28:59.064Z,39.49
2019-04-05T14:31:29.609Z,39.37
2019-04-05T14:33:59.813Z,39.50
2019-04-05T14:36:29.337Z,39.99
2019-04-05T14:38:58.888Z,39.97
2019-04-05T14:41:28.483Z,39.94
2019-04-05T14:43:58.083Z,39.75
2019-04-05T14:46:29.048Z,39.73
2019-04-05T14:49:00.650Z,39.58
2019-04-05T14:51:30.118Z,38.83
2019-04-05T14:54:01.675Z,38.65
2019-04-05T14:56:31.427Z,38.60
2019-04-05T14:59:01.080Z,38.30
2019-04-05T15:01:30.675Z,38.30
2019-04-05T15:04:00.284Z,38.45
2019-04-05T15:06:29.878Z,38.61
2019-04-05T15:09:02.006Z,38.55
2019-04-05T15:11:30.735Z,38.50
2019-04-05T15:14:00.297Z,38.19
2019-04-05T15:16:29.911Z,38.11
2019-04-05T15:18:59.486Z,38.16
2019-04-05T15:21:29.093Z,38.19
2019-04-05T15:23:58.655Z,38.21
2019-04-05T15:26:28.202Z,38.46
2019-04-05T15:28:57.781Z,38.56
2019-04-05T15:31:27.437Z,38.60
2019-04-05T15:33:58.320Z,38.56
2019-04-05T15:36:29.436Z,38.52
2019-04-05T15:39:01.276Z,38.57
2019-04-05T15:41:30.633Z,38.70
2019-04-05T15:44:00.357Z,38.78
2019-04-05T15:46:29.981Z,38.86
2019-04-05T15:48:59.587Z,38.85
2019-04-05T15:51:29.332Z,38.91
2019-04-05T15:54:01.139Z,39.02
2019-04-05T15:56:34.153Z,39.16
2019-04-05T15:59:04.548Z,39.22
2019-04-05T16:01:35.049Z,39.20
2019-04-05T16:04:04.912Z,39.25
2019-04-05T16:06:34.560Z,39.36
2019-04-05T16:09:05.631Z,39.52
2019-04-05T16:11:35.901Z,39.66
2019-04-05T16:14:05.534Z,39.63
2019-04-05T16:16:35.045Z,39.67
2019-04-05T16:19:04.701Z,39.96
2019-04-05T16:21:34.325Z,40.05
2019-04-05T16:24:03.904Z,40.12
2019-04-05T16:26:33.529Z,40.29
2019-04-05T16:29:05.257Z,40.41
2019-04-05T16:31:34.887Z,40.47
2019-04-05T16:34:04.699Z,40.49
2019-04-05T16:36:34.301Z,40.71
2019-04-05T16:39:06.949Z,40.76
2019-04-05T16:41:36.514Z,40.68
2019-04-05T16:44:10.282Z,40.77
2019-04-05T16:46:41.142Z,40.81
2019-04-05T16:49:10.756Z,40.87
2019-04-05T16:51:40.365Z,41.10
2019-04-05T16:54:10.001Z,41.21
2019-04-05T16:56:39.660Z,42.32
2019-04-05T16:59:09.393Z,43.24
2019-04-05T17:01:38.980Z,44.06
2019-04-05T17:04:08.521Z,44.67
2019-04-05T17:06:38.016Z,45.36
2019-04-05T17:09:09.488Z,45.99
2019-04-05T17:11:39.141Z,46.58
2019-04-05T17:14:08.699Z,46.93
2019-04-05T17:16:40.836Z,47.31
2019-04-05T17:19:10.620Z,47.71
2019-04-05T17:21:40.191Z,48.03
2019-04-05T17:24:09.788Z,48.23
2019-04-05T17:26:39.361Z,48.44
2019-04-05T17:29:08.950Z,48.72
2019-04-05T17:31:38.640Z,49.04
2019-04-05T17:34:09.209Z,49.49
2019-04-05T17:36:38.797Z,49.71
2019-04-05T17:39:08.956Z,49.92
2019-04-05T17:41:38.450Z,50.08
2019-04-05T17:44:08.110Z,50.24
2019-04-05T17:46:37.630Z,50.37
2019-04-05T17:49:07.215Z,50.38
2019-04-05T17:51:36.770Z,50.54
2019-04-05T17:54:06.329Z,50.38
2019-04-05T17:56:36.371Z,50.50
2019-04-05T17:59:06.387Z,50.62
2019-04-05T18:01:38.650Z,50.71
2019-04-05T18:04:07.223Z,50.63
2019-04-05T18:06:36.764Z,50.54
2019-04-05T18:09:07.562Z,50.53
2019-04-05T18:11:37.139Z,50.45
2019-04-05T18:14:06.654Z,50.40
2019-04-05T18:16:36.202Z,50.22
2019-04-05T18:19:05.795Z,50.09
2019-04-05T18:21:36.785Z,50.05
2019-04-05T18:24:09.940Z,49.77
2019-04-05T18:26:39.538Z,49.68
2019-04-05T18:29:09.057Z,49.45
2019-04-05T18:31:38.596Z,49.48
2019-04-05T18:34:08.186Z,49.47
2019-04-05T18:36:37.872Z,49.39
2019-04-05T18:39:10.077Z,49.52
2019-04-05T18:41:39.665Z,49.37
2019-04-05T18:44:09.272Z,49.34
2019-04-05T18:46:39.028Z,49.50
2019-04-05T18:49:08.587Z,49.42
2019-04-05T18:51:38.141Z,49.32
2019-04-05T18:54:07.771Z,49.06
2019-04-05T18:56:37.339Z,49.06
2019-04-05T18:59:06.910Z,48.97
2019-04-05T19:01:36.549Z,49.15
2019-04-05T19:04:06.173Z,49.07
2019-04-05T19:06:35.728Z,49.09
2019-04-05T19:09:07.581Z,49.08
2019-04-05T19:11:37.209Z,49.05
2019-04-05T19:14:06.901Z,49.30
2019-04-05T19:16:36.514Z,49.46
2019-04-05T19:19:06.546Z,49.67
2019-04-05T19:21:36.135Z,49.74
2019-04-05T19:24:06.270Z,50.25
2019-04-05T19:26:35.873Z,49.84
2019-04-05T19:29:05.572Z,50.13
2019-04-05T19:49:14.865Z,49.59
2019-04-05T19:51:44.396Z,49.83
2019-04-05T19:54:13.983Z,49.87
2019-04-05T19:56:43.493Z,50.02
2019-04-05T19:59:13.079Z,50.03
2019-04-05T20:01:42.614Z,50.09
2019-04-05T20:04:12.193Z,50.36
2019-04-05T20:06:41.793Z,50.50
2019-04-05T20:09:11.296Z,50.32
2019-04-05T20:11:40.963Z,50.37
2019-04-05T20:14:10.521Z,50.27
2019-04-05T20:16:40.130Z,50.42
2019-04-05T20:19:09.689Z,50.53
2019-04-05T20:21:39.200Z,50.51
2019-04-05T20:24:14.141Z,50.49
2019-04-05T20:26:40.054Z,50.61
2019-04-05T20:29:09.618Z,50.40
2019-04-05T20:31:39.136Z,50.46
2019-04-05T20:34:08.702Z,50.61
2019-04-05T20:36:38.285Z,50.51
2019-04-05T20:39:08.616Z,50.53
2019-04-05T20:41:38.218Z,50.69
2019-04-05T20:44:07.708Z,50.75
2019-04-05T20:46:37.293Z,50.80
2019-04-05T20:49:06.816Z,50.79
2019-04-05T20:51:36.401Z,50.80
2019-04-05T20:54:06.033Z,50.90
2019-04-05T20:56:35.547Z,50.93
2019-04-05T20:59:05.090Z,50.90
2019-04-05T21:01:34.689Z,50.94
2019-04-05T21:04:04.432Z,50.87
2019-04-05T21:06:34.011Z,50.86
2019-04-05T21:09:05.379Z,50.63
2019-04-05T21:11:35.008Z,50.38
2019-04-05T21:14:04.645Z,50.33
2019-04-05T21:16:34.266Z,50.36
2019-04-05T21:19:05.065Z,50.35
2019-04-05T21:21:34.716Z,50.38
2019-04-05T21:24:04.278Z,50.43
2019-04-05T21:26:33.771Z,50.52
2019-04-05T21:29:03.301Z,50.60
2019-04-05T21:31:32.908Z,50.64
2019-04-05T21:34:02.416Z,50.60
2019-04-05T21:36:32.035Z,50.68
2019-04-05T21:39:01.571Z,50.87
2019-04-05T21:41:31.161Z,50.88
2019-04-05T21:44:00.691Z,51.10
2019-04-05T21:46:30.219Z,51.34
2019-04-05T21:48:59.872Z,51.54
2019-04-05T21:51:29.452Z,52.48
2019-04-05T21:53:58.960Z,52.23
2019-04-05T21:56:28.618Z,51.78
2019-04-05T21:58:58.488Z,52.46
2019-04-05T22:01:28.019Z,51.51
2019-04-05T22:03:57.587Z,51.64
2019-04-05T22:06:27.139Z,51.29
2019-04-05T22:08:56.633Z,51.21
2019-04-05T22:11:27.802Z,51.26
2019-04-05T22:13:57.675Z,51.36
2019-04-05T22:16:27.262Z,51.59
2019-04-05T22:18:56.745Z,51.61
2019-04-05T22:21:26.237Z,52.08
2019-04-05T22:23:55.731Z,52.17
2019-04-05T22:26:25.234Z,52.64
2019-04-05T22:28:54.826Z,52.92
2019-04-05T22:31:24.288Z,53.00
2019-04-05T22:33:53.826Z,53.09
2019-04-05T22:36:23.311Z,53.36
2019-04-05T22:38:52.886Z,53.36
2019-04-05T22:41:22.415Z,53.66
2019-04-05T22:43:51.914Z,53.84
2019-04-05T22:46:21.763Z,54.00
2019-04-05T22:48:51.275Z,54.01
2019-04-05T22:51:20.773Z,54.24
2019-04-05T22:53:50.295Z,54.21
2019-04-05T22:56:19.856Z,54.29
2019-04-05T22:58:49.392Z,54.48
2019-04-05T23:01:18.914Z,54.55
2019-04-05T23:03:48.464Z,54.81
2019-04-05T23:06:17.995Z,54.84
2019-04-05T23:08:47.544Z,55.01
2019-04-05T23:11:17.093Z,55.18
2019-04-05T23:13:46.584Z,55.12
2019-04-05T23:16:16.095Z,55.39
2019-04-05T23:18:45.657Z,55.61
2019-04-05T23:21:15.229Z,55.88
2019-04-05T23:23:44.747Z,55.91
2019-04-05T23:26:14.267Z,56.05
2019-04-05T23:28:43.739Z,56.26
2019-04-05T23:31:13.255Z,56.62
2019-04-05T23:33:42.744Z,56.78
2019-04-05T23:36:12.279Z,56.93
2019-04-05T23:38:41.773Z,57.34
2019-04-05T23:41:11.259Z,57.51
2019-04-05T23:43:40.785Z,57.63
2019-04-05T23:46:10.325Z,57.81
2019-04-05T23:48:39.842Z,58.13
2019-04-05T23:51:09.385Z,58.26
2019-04-05T23:53:40.730Z,58.28
2019-04-05T23:56:10.352Z,58.40
2019-04-05T23:58:39.858Z,58.45
